Time;durP1;ratioP1;P1;durP2;ratioP2;P2;SDS_P1;SDS_P2;PMS_P1;PMS_P2;Temp;Humidity;BMP_temperature;BMP_pressure;BME280_temperature;BME280_humidity;BME280_pressure;Samples;Min_cycle;Max_cycle;Signal;HPM_P1;HPM_P2
2024/01/31 00:01:50;;;;;;;18.83;14.13;;;;;;;8.19;71.81;100405.72;5090932;28;20460;-49
2024/01/31 00:04:15;;;;;;;19.00;11.23;;;;;;;8.06;72.63;100409.59;5090914;28;20024;-49
2024/01/31 00:06:41;;;;;;;17.35;9.88;;;;;;;7.90;72.76;100413.63;5092135;28;20023;-49
2024/01/31 00:09:07;;;;;;;17.25;10.32;;;;;;;7.82;73.19;100416.09;5092459;28;20024;-49
2024/01/31 00:11:33;;;;;;;19.52;13.45;;;;;;;7.74;73.85;100416.81;5092479;28;20046;-49
2024/01/31 00:13:59;;;;;;;18.45;11.45;;;;;;;7.87;74.88;100410.44;5090732;28;20519;-49
2024/01/31 00:16:25;;;;;;;17.48;11.02;;;;;;;7.92;74.70;100400.41;5091994;28;20012;-49
2024/01/31 00:18:51;;;;;;;19.55;10.98;;;;;;;7.89;74.96;100406.75;5092057;28;20023;-49
2024/01/31 00:21:17;;;;;;;14.68;9.90;;;;;;;8.02;74.92;100401.22;5091954;28;20628;-49
2024/01/31 00:23:44;;;;;;;16.33;11.07;;;;;;;8.09;74.39;100391.84;5091929;28;20603;-49
2024/01/31 00:26:09;;;;;;;18.80;11.60;;;;;;;7.96;73.45;100386.09;5091941;28;20016;-49
2024/01/31 00:28:35;;;;;;;17.52;12.00;;;;;;;7.77;73.97;100384.34;5091926;28;20035;-49
2024/01/31 00:31:01;;;;;;;15.88;12.13;;;;;;;7.62;75.00;100383.94;5091776;28;20153;-49
2024/01/31 00:33:27;;;;;;;18.73;13.50;;;;;;;7.64;75.83;100376.78;5090567;28;20024;-49
2024/01/31 00:35:53;;;;;;;16.23;12.20;;;;;;;7.77;74.83;100381.75;5091795;28;20103;-49
2024/01/31 00:38:19;;;;;;;18.98;11.98;;;;;;;7.54;74.69;100383.81;5091578;28;20217;-50
2024/01/31 00:40:44;;;;;;;21.88;13.20;;;;;;;7.44;75.80;100388.22;5091773;28;20089;-49
2024/01/31 00:43:10;;;;;;;18.40;12.57;;;;;;;7.36;75.84;100386.28;5090404;28;20401;-48
2024/01/31 00:45:36;;;;;;;20.13;12.18;;;;;;;7.19;75.95;100393.84;5091767;28;20024;-49
2024/01/31 00:48:02;;;;;;;17.00;12.90;;;;;;;7.28;76.28;100391.38;5091735;28;20028;-49
2024/01/31 00:50:28;;;;;;;20.65;12.32;;;;;;;7.31;75.87;100391.94;5091649;28;20031;-49
2024/01/31 00:52:53;;;;;;;15.57;12.00;;;;;;;7.21;75.43;100396.34;5090357;28;20050;-49
2024/01/31 00:55:19;;;;;;;15.02;11.95;;;;;;;7.18;76.90;100393.97;5090308;28;20025;-49
2024/01/31 00:57:46;;;;;;;18.13;12.88;;;;;;;7.11;76.48;100391.09;5090669;28;20395;-49
2024/01/31 01:00:14;;;;;;;17.98;12.77;;;;;;;7.06;76.90;100395.06;5091545;28;20017;-49
2024/01/31 01:02:40;;;;;;;19.42;12.98;;;;;;;6.86;77.31;100397.66;5094342;28;20031;-49
2024/01/31 01:05:09;;;;;;;21.48;15.25;;;;;;;6.84;78.02;100398.72;5095791;28;20016;-49
2024/01/31 01:07:41;;;;;;;16.92;12.52;;;;;;;6.82;78.21;100398.84;5095574;28;20150;-49
2024/01/31 01:10:12;;;;;;;17.80;12.70;;;;;;;6.76;78.21;100397.63;5095372;28;20016;-49
2024/01/31 01:12:39;;;;;;;21.80;12.80;;;;;;;6.78;78.38;100400.09;5095555;28;20056;-49
2024/01/31 01:15:08;;;;;;;16.42;12.35;;;;;;;6.86;78.78;100389.81;5095425;28;20115;-49
2024/01/31 01:17:35;;;;;;;19.25;12.65;;;;;;;6.97;79.69;100394.91;5095331;28;20020;-49
2024/01/31 01:20:01;;;;;;;16.23;10.80;;;;;;;7.25;79.41;100397.72;5095382;28;20020;-49
2024/01/31 01:22:29;;;;;;;15.40;10.35;;;;;;;7.42;78.60;100387.53;5095289;28;20027;-49
2024/01/31 01:24:55;;;;;;;22.20;10.93;;;;;;;7.46;77.37;100394.13;5095293;28;20024;-49
2024/01/31 01:27:21;;;;;;;20.13;11.48;;;;;;;7.47;77.15;100395.78;5095170;28;20049;-49
2024/01/31 01:29:47;;;;;;;15.07;11.25;;;;;;;7.45;76.93;100401.16;5095137;28;20081;-49
2024/01/31 01:32:12;;;;;;;16.40;11.82;;;;;;;7.42;76.21;100387.53;5094895;28;20482;-49
2024/01/31 01:34:41;;;;;;;15.85;10.75;;;;;;;7.13;76.38;100389.16;5095285;28;20088;-49
2024/01/31 01:37:07;;;;;;;15.07;11.40;;;;;;;7.12;77.54;100382.31;5094985;28;20494;-49
2024/01/31 01:39:37;;;;;;;15.70;11.73;;;;;;;7.20;77.57;100384.22;5094645;28;20497;-49
2024/01/31 01:42:03;;;;;;;15.02;12.15;;;;;;;7.14;77.62;100390.00;5093585;28;20452;-49
2024/01/31 01:44:33;;;;;;;19.30;12.60;;;;;;;7.11;77.50;100385.06;5094916;28;20023;-48
2024/01/31 01:47:02;;;;;;;16.58;11.23;;;;;;;7.19;77.62;100385.19;5093479;28;20052;-49
2024/01/31 01:49:29;;;;;;;21.00;11.30;;;;;;;7.18;77.75;100388.75;5093447;28;20060;-49
2024/01/31 01:51:55;;;;;;;19.08;11.75;;;;;;;7.25;77.92;100387.25;5093290;28;20028;-49
2024/01/31 01:54:21;;;;;;;16.90;11.85;;;;;;;7.26;77.91;100393.31;5094590;28;20490;-49
2024/01/31 01:56:49;;;;;;;19.08;12.38;;;;;;;7.27;77.39;100394.97;5093419;28;20024;-49
2024/01/31 01:59:16;;;;;;;14.73;10.48;;;;;;;7.27;77.78;100387.94;5076416;28;20055;-49
2024/01/31 02:01:42;;;;;;;20.00;14.77;;;;;;;7.35;77.99;100379.44;5093170;28;20031;-49
2024/01/31 02:04:08;;;;;;;21.13;12.75;;;;;;;7.43;77.39;100386.59;5076314;28;20032;-49
2024/01/31 02:06:34;;;;;;;15.57;10.70;;;;;;;7.65;77.80;100385.47;5094447;28;20103;-49
2024/01/31 02:09:00;;;;;;;32.08;26.27;;;;;;;7.92;77.15;100395.19;5094341;28;20059;-49
2024/01/31 02:11:26;;;;;;;54.90;49.17;;;;;;;8.06;76.62;100404.38;5094184;28;20063;-49
2024/01/31 02:13:52;;;;;;;36.90;28.67;;;;;;;8.16;75.81;100397.31;5093437;28;20020;-49
2024/01/31 02:16:18;;;;;;;20.02;15.98;;;;;;;8.22;74.98;100409.03;5094196;28;20020;-49
2024/01/31 02:18:44;;;;;;;20.90;18.38;;;;;;;8.02;73.94;100395.97;5092896;28;20063;-49
2024/01/31 02:21:09;;;;;;;31.45;25.35;;;;;;;7.82;73.10;100403.03;5092780;28;20024;-49
2024/01/31 02:23:35;;;;;;;14.80;11.30;;;;;;;7.67;73.46;100394.81;5092740;28;20054;-49
2024/01/31 02:26:01;;;;;;;12.98;9.88;;;;;;;7.66;74.21;100390.53;5092717;28;20027;-49
2024/01/31 02:28:27;;;;;;;12.93;10.10;;;;;;;7.65;74.05;100388.09;5093993;28;20020;-49
2024/01/31 02:30:54;;;;;;;15.43;10.52;;;;;;;7.49;74.52;100383.41;5093855;28;20017;-49
2024/01/31 02:33:19;;;;;;;12.73;9.60;;;;;;;7.34;75.26;100383.81;5075769;28;20063;-49
2024/01/31 02:35:45;;;;;;;12.77;9.52;;;;;;;7.26;76.00;100368.00;5109581;28;20471;-49
2024/01/31 02:38:11;;;;;;;14.02;9.05;;;;;;;7.25;76.41;100362.94;5109457;28;20071;-49
2024/01/31 02:40:37;;;;;;;16.95;11.00;;;;;;;7.29;76.57;100357.31;5093433;28;20134;-49
2024/01/31 02:43:02;;;;;;;69.13;62.20;;;;;;;7.42;77.20;100357.00;5092530;28;20043;-49
2024/01/31 02:45:28;;;;;;;61.05;55.05;;;;;;;7.46;76.47;100363.59;5093677;28;20060;-49
2024/01/31 02:47:54;;;;;;;39.38;35.25;;;;;;;7.33;76.52;100368.31;5093678;28;20055;-49
2024/01/31 02:50:20;;;;;;;41.63;37.25;;;;;;;7.27;76.54;100361.03;5093740;28;20016;-49
2024/01/31 02:52:46;;;;;;;21.50;16.50;;;;;;;7.22;77.04;100371.84;5092195;28;20036;-49
2024/01/31 02:55:11;;;;;;;20.70;15.75;;;;;;;7.14;76.35;100379.53;5093463;28;20485;-49
2024/01/31 02:57:37;;;;;;;23.30;18.70;;;;;;;6.96;77.08;100376.78;5092118;28;20478;-49
2024/01/31 03:00:04;;;;;;;18.13;13.90;;;;;;;6.88;78.16;100377.47;5092025;28;20054;-49
2024/01/31 03:02:32;;;;;;;16.38;12.25;;;;;;;6.82;78.45;100380.59;5093405;28;20024;-49
2024/01/31 03:04:58;;;;;;;21.80;12.13;;;;;;;6.73;78.33;100384.00;5092024;28;20032;-49
2024/01/31 03:07:24;;;;;;;24.67;11.98;;;;;;;6.73;78.45;100379.63;5093197;28;20020;-49
2024/01/31 03:09:50;;;;;;;16.92;11.30;;;;;;;6.81;78.59;100381.56;5093222;28;20375;-48
2024/01/31 03:12:15;;;;;;;16.88;11.65;;;;;;;6.78;78.43;100377.44;5091744;28;20032;-49
2024/01/31 03:14:42;;;;;;;17.45;11.88;;;;;;;6.84;78.92;100385.69;5091829;28;20024;-49
2024/01/31 03:17:07;;;;;;;21.42;14.18;;;;;;;6.75;78.38;100384.72;5093010;28;20039;-49
2024/01/31 03:19:35;;;;;;;17.30;11.35;;;;;;;6.62;77.98;100384.09;5091713;28;20020;-49
2024/01/31 03:22:01;;;;;;;16.60;11.95;;;;;;;6.52;77.53;100371.03;5091673;28;20034;-48
2024/01/31 03:24:28;;;;;;;19.75;11.60;;;;;;;6.46;79.40;100371.56;5092852;28;20020;-49
2024/01/31 03:26:53;;;;;;;14.15;10.93;;;;;;;6.52;79.06;100366.66;5092908;28;20081;-49
2024/01/31 03:29:19;;;;;;;13.95;10.63;;;;;;;6.56;78.72;100365.44;5091457;28;20016;-49
2024/01/31 03:31:46;;;;;;;14.57;10.90;;;;;;;6.70;79.83;100360.78;5091377;28;20114;-49
2024/01/31 03:34:12;;;;;;;13.57;8.63;;;;;;;6.81;78.82;100363.28;5092746;28;20061;-49
2024/01/31 03:36:38;;;;;;;15.15;9.90;;;;;;;6.86;78.10;100370.72;5092666;28;20028;-49
2024/01/31 03:39:03;;;;;;;13.95;10.23;;;;;;;6.72;77.35;100354.50;5108042;28;20047;-49
2024/01/31 03:41:29;;;;;;;18.75;11.15;;;;;;;6.60;77.66;100356.38;5091614;28;20035;-49
2024/01/31 03:43:55;;;;;;;17.83;11.57;;;;;;;6.66;78.58;100355.03;5091282;28;20028;-49
2024/01/31 03:46:21;;;;;;;15.60;11.45;;;;;;;6.75;77.87;100353.41;5092490;28;20016;-49
2024/01/31 03:48:51;;;;;;;17.50;12.65;;;;;;;6.68;77.11;100353.13;5092807;28;20028;-49
2024/01/31 03:51:24;;;;;;;20.30;11.52;;;;;;;6.58;78.31;100360.91;5092407;28;20055;-49
2024/01/31 03:53:50;;;;;;;19.30;12.48;;;;;;;6.54;77.66;100359.53;5092357;28;20078;-49
2024/01/31 03:56:16;;;;;;;16.85;10.70;;;;;;;6.48;78.24;100352.25;5091011;28;20021;-49
2024/01/31 03:58:43;;;;;;;13.52;10.88;;;;;;;6.42;78.88;100354.53;5092342;28;20478;-48
2024/01/31 04:01:13;;;;;;;12.35;10.32;;;;;;;6.38;79.25;100352.19;5092218;28;20458;-49
2024/01/31 04:03:39;;;;;;;13.70;11.00;;;;;;;6.40;79.08;100354.69;5091069;28;20410;-49
2024/01/31 04:06:05;;;;;;;19.95;11.52;;;;;;;6.29;78.86;100354.78;5090855;28;20021;-49
2024/01/31 04:08:31;;;;;;;15.20;11.00;;;;;;;6.25;79.65;100361.19;5090844;28;20107;-49
2024/01/31 04:10:57;;;;;;;14.38;10.90;;;;;;;6.19;80.22;100359.94;5092096;28;20466;-49
2024/01/31 04:13:23;;;;;;;15.40;10.55;;;;;;;6.24;80.26;100362.13;5090782;28;20028;-49
2024/01/31 04:15:48;;;;;;;13.60;9.88;;;;;;;6.35;80.38;100360.28;5092096;28;20017;-49
2024/01/31 04:18:14;;;;;;;15.80;12.27;;;;;;;6.41;80.03;100358.94;5092005;28;20032;-49
2024/01/31 04:20:40;;;;;;;14.43;11.52;;;;;;;6.40;80.34;100354.69;5090681;28;20513;-49
2024/01/31 04:23:06;;;;;;;16.30;11.05;;;;;;;6.34;79.54;100357.81;5092005;28;20114;-49
2024/01/31 04:25:32;;;;;;;18.48;12.13;;;;;;;6.25;79.31;100366.41;5090748;28;20025;-49
2024/01/31 04:27:58;;;;;;;16.92;11.80;;;;;;;6.22;79.58;100366.66;5090779;28;20162;-49
2024/01/31 04:30:24;;;;;;;17.70;12.50;;;;;;;6.19;79.56;100367.75;5091817;28;20492;-49
2024/01/31 04:32:50;;;;;;;15.25;11.95;;;;;;;6.12;79.79;100364.03;5090587;28;20031;-49
2024/01/31 04:35:16;;;;;;;17.90;11.25;;;;;;;6.06;80.01;100360.16;5090576;28;20382;-49
2024/01/31 04:37:41;;;;;;;14.05;10.95;;;;;;;6.04;79.52;100358.63;5097626;28;20473;-49
2024/01/31 04:40:08;;;;;;;15.63;11.93;;;;;;;6.01;80.09;100364.91;5096704;28;20529;-49
2024/01/31 04:42:35;;;;;;;17.35;11.63;;;;;;;6.00;80.42;100352.88;5097351;28;20047;-48
2024/01/31 04:45:00;;;;;;;24.48;17.33;;;;;;;6.06;79.80;100354.94;5097251;28;20030;-47
2024/01/31 04:47:26;;;;;;;16.60;12.30;;;;;;;6.17;79.95;100359.25;5098486;28;20389;-47
2024/01/31 04:49:53;;;;;;;21.52;12.88;;;;;;;6.25;79.83;100348.16;5098486;28;20468;-46
2024/01/31 04:52:19;;;;;;;15.27;11.35;;;;;;;6.09;78.95;100353.84;5098383;28;20024;-47
2024/01/31 04:54:44;;;;;;;14.25;11.68;;;;;;;6.00;79.55;100350.25;5098470;28;20099;-46
2024/01/31 04:57:10;;;;;;;19.45;12.07;;;;;;;5.97;79.63;100358.31;5098359;28;20101;-47
2024/01/31 04:59:39;;;;;;;13.90;11.15;;;;;;;5.99;80.03;100359.84;5098437;28;20055;-47
2024/01/31 05:02:09;;;;;;;15.43;10.70;;;;;;;6.02;78.97;100363.97;5097019;28;20242;-47
2024/01/31 05:04:36;;;;;;;13.75;11.15;;;;;;;6.03;79.08;100364.81;5097373;28;20059;-46
2024/01/31 05:07:03;;;;;;;17.83;11.82;;;;;;;6.00;79.27;100360.69;5098241;28;20024;-47
2024/01/31 05:09:28;;;;;;;19.05;12.20;;;;;;;5.93;78.78;100368.13;5098306;28;20055;-47
2024/01/31 05:11:54;;;;;;;18.55;12.48;;;;;;;5.86;79.97;100366.19;5098223;28;20180;-47
2024/01/31 05:14:20;;;;;;;15.73;11.95;;;;;;;5.80;79.46;100368.34;5096917;28;20118;-47
2024/01/31 05:16:46;;;;;;;15.63;10.90;;;;;;;5.79;80.46;100366.72;5098267;28;20035;-47
2024/01/31 05:19:12;;;;;;;18.70;10.98;;;;;;;5.87;80.12;100371.25;5096880;28;20116;-47
2024/01/31 05:21:48;;;;;;;19.85;13.18;;;;;;;5.87;80.10;100366.03;5098087;28;20295;-46
2024/01/31 05:24:15;;;;;;;14.27;11.75;;;;;;;6.04;79.23;100369.03;5098482;28;20034;-47
2024/01/31 05:26:42;;;;;;;15.27;10.00;;;;;;;5.97;78.95;100373.94;5098102;28;20012;-47
2024/01/31 05:29:08;;;;;;;17.80;10.82;;;;;;;5.91;79.36;100366.63;5096761;28;20405;-46
2024/01/31 05:31:34;;;;;;;17.15;11.82;;;;;;;5.96;79.54;100365.31;5098010;28;20016;-47
2024/01/31 05:34:03;;;;;;;15.73;11.43;;;;;;;6.04;79.14;100361.22;5098085;28;20054;-47
2024/01/31 05:36:28;;;;;;;14.38;10.38;;;;;;;6.11;79.25;100365.78;5096756;28;20024;-47
2024/01/31 05:38:54;;;;;;;15.90;10.70;;;;;;;6.11;78.61;100364.97;5097780;28;20077;-47
2024/01/31 05:41:20;;;;;;;17.15;10.52;;;;;;;5.99;78.91;100370.25;5098012;28;20541;-47
2024/01/31 05:43:46;;;;;;;19.05;11.40;;;;;;;5.94;78.87;100371.59;5096676;28;20044;-47
2024/01/31 05:46:15;;;;;;;18.20;12.50;;;;;;;5.94;78.87;100372.41;5096604;28;20031;-47
2024/01/31 05:48:42;;;;;;;18.33;11.63;;;;;;;6.05;78.83;100374.13;5094668;28;20028;-47
2024/01/31 05:51:08;;;;;;;15.65;11.30;;;;;;;6.09;78.45;100378.13;5094652;28;20016;-46
2024/01/31 05:53:34;;;;;;;14.77;11.30;;;;;;;6.13;77.20;100371.69;5094722;28;20390;-46
2024/01/31 05:55:59;;;;;;;13.60;11.65;;;;;;;6.16;77.68;100365.44;5093364;28;20440;-47
2024/01/31 05:58:25;;;;;;;18.38;11.02;;;;;;;6.13;77.88;100371.69;5094586;28;20024;-47
2024/01/31 06:00:52;;;;;;;17.13;11.60;;;;;;;6.11;78.05;100371.00;5094809;28;20031;-47
2024/01/31 06:03:18;;;;;;;18.30;12.75;;;;;;;6.08;77.74;100363.47;5094518;28;20031;-49
2024/01/31 06:05:44;;;;;;;16.20;12.40;;;;;;;6.11;77.84;100371.00;5094495;28;20509;-49
2024/01/31 06:08:09;;;;;;;16.65;11.32;;;;;;;6.02;76.98;100369.19;5094430;28;20028;-49
2024/01/31 06:10:35;;;;;;;18.70;12.35;;;;;;;6.03;77.96;100368.22;5093003;28;20024;-46
2024/01/31 06:13:01;;;;;;;18.17;12.65;;;;;;;6.08;77.56;100373.06;5093041;28;20161;-46
2024/01/31 06:15:27;;;;;;;14.95;10.65;;;;;;;6.10;78.02;100373.78;5094344;28;20151;-47
2024/01/31 06:17:53;;;;;;;16.88;11.73;;;;;;;6.22;77.95;100379.69;5092977;28;20481;-46
2024/01/31 06:20:19;;;;;;;17.83;11.43;;;;;;;6.34;78.06;100382.09;5094222;28;20107;-47
2024/01/31 06:22:45;;;;;;;23.77;13.73;;;;;;;6.49;77.69;100379.94;5092850;28;20024;-47
2024/01/31 06:25:11;;;;;;;20.80;13.75;;;;;;;6.68;77.43;100373.16;5094148;28;20046;-47
2024/01/31 06:27:37;;;;;;;40.90;13.85;;;;;;;6.80;77.41;100372.91;5094044;28;20632;-47
2024/01/31 06:30:04;;;;;;;39.08;14.05;;;;;;;6.96;77.35;100376.78;5094036;28;20103;-47
2024/01/31 06:32:32;;;;;;;55.20;15.38;;;;;;;7.13;76.71;100383.13;5093954;28;20501;-47
2024/01/31 06:34:59;;;;;;;20.13;13.55;;;;;;;7.17;75.87;100380.09;5093856;28;20111;-47
2024/01/31 06:37:26;;;;;;;18.23;11.52;;;;;;;7.25;75.89;100376.81;5093850;28;20035;-47
2024/01/31 06:39:54;;;;;;;40.70;12.27;;;;;;;7.17;74.83;100384.50;5093443;28;20050;-47
2024/01/31 06:42:20;;;;;;;35.13;13.50;;;;;;;7.11;74.79;100395.50;5093781;28;20043;-47
2024/01/31 06:44:46;;;;;;;22.92;13.48;;;;;;;7.22;74.66;100395.34;5093759;28;20036;-47
2024/01/31 06:47:12;;;;;;;50.03;13.80;;;;;;;7.20;74.05;100395.50;5093688;28;20016;-47
2024/01/31 06:49:38;;;;;;;25.63;12.48;;;;;;;7.25;74.48;100400.31;5093693;28;20060;-47
2024/01/31 06:52:06;;;;;;;34.15;16.65;;;;;;;7.47;75.10;100401.03;5093434;28;20035;-47
2024/01/31 06:54:31;;;;;;;24.25;14.45;;;;;;;7.51;73.64;100407.63;5093783;28;20035;-47
2024/01/31 06:56:57;;;;;;;21.02;13.10;;;;;;;7.27;72.75;100408.84;5092188;28;20020;-47
2024/01/31 06:59:23;;;;;;;104.50;84.53;;;;;;;7.03;73.32;100409.22;5093081;28;20020;-47
2024/01/31 07:01:48;;;;;;;37.03;22.85;;;;;;;6.99;73.43;100402.63;5093350;28;20074;-47
2024/01/31 07:04:14;;;;;;;57.28;25.95;;;;;;;7.08;74.06;100411.41;5092017;28;20379;-47
2024/01/31 07:06:40;;;;;;;35.63;17.33;;;;;;;7.20;73.56;100411.19;5093221;28;20044;-47
2024/01/31 07:09:06;;;;;;;37.67;14.02;;;;;;;7.25;72.57;100413.38;5093262;28;20026;-47
2024/01/31 07:11:31;;;;;;;43.88;14.63;;;;;;;7.26;72.55;100415.00;5091823;28;20500;-47
2024/01/31 07:13:57;;;;;;;35.45;14.65;;;;;;;7.26;73.27;100407.19;5093153;28;20059;-47
2024/01/31 07:16:23;;;;;;;30.73;16.08;;;;;;;7.26;72.68;100407.19;5093079;28;20409;-49
2024/01/31 07:18:49;;;;;;;22.95;12.55;;;;;;;7.33;72.45;100405.69;5093070;28;20444;-48
2024/01/31 07:21:24;;;;;;;19.38;12.32;;;;;;;7.38;72.35;100413.09;5092986;28;20114;-49
2024/01/31 07:23:51;;;;;;;17.70;10.88;;;;;;;7.37;71.47;100404.44;5091593;28;20036;-49
2024/01/31 07:26:24;;;;;;;15.43;11.32;;;;;;;7.29;71.96;100411.31;5092893;28;20031;-49
2024/01/31 07:28:51;;;;;;;18.40;11.77;;;;;;;7.65;71.80;100415.03;5091574;28;20077;-47
2024/01/31 07:31:16;;;;;;;29.52;12.30;;;;;;;7.95;70.84;100413.22;5092679;28;20028;-47
2024/01/31 07:33:42;;;;;;;19.20;12.57;;;;;;;8.05;70.27;100406.19;5091517;28;20399;-47
2024/01/31 07:36:08;;;;;;;19.33;12.90;;;;;;;8.01;69.69;100394.34;5092701;28;20020;-47
2024/01/31 07:38:34;;;;;;;26.08;20.38;;;;;;;7.78;69.27;100407.72;5091398;28;20512;-47
2024/01/31 07:41:00;;;;;;;22.30;15.77;;;;;;;7.63;69.56;100409.13;5091111;28;20047;-47
2024/01/31 07:43:26;;;;;;;30.90;14.48;;;;;;;7.52;69.93;100404.84;5092639;28;20494;-49
2024/01/31 07:45:52;;;;;;;29.75;14.27;;;;;;;7.49;70.48;100409.53;5091249;28;20119;-50
2024/01/31 07:48:18;;;;;;;15.60;12.30;;;;;;;7.39;70.96;100406.94;5092476;28;20056;-49
2024/01/31 07:50:45;;;;;;;18.15;13.02;;;;;;;7.43;70.98;100410.09;5092417;28;20545;-47
2024/01/31 07:53:11;;;;;;;19.88;13.07;;;;;;;7.38;71.28;100408.72;5092450;28;20020;-49
2024/01/31 07:55:36;;;;;;;20.67;13.65;;;;;;;7.43;71.22;100412.72;5091087;28;20401;-49
2024/01/31 07:58:03;;;;;;;28.52;20.77;;;;;;;7.58;71.24;100404.28;5092386;28;20394;-49
2024/01/31 08:00:29;;;;;;;19.90;13.93;;;;;;;7.88;71.34;100417.34;5092295;28;20405;-49
2024/01/31 08:02:54;;;;;;;24.13;14.30;;;;;;;8.12;71.04;100417.69;5092287;28;20076;-49
2024/01/31 08:05:20;;;;;;;27.80;15.07;;;;;;;8.43;70.84;100430.59;5092214;28;20105;-49
2024/01/31 08:07:46;;;;;;;26.92;15.27;;;;;;;8.68;69.93;100436.16;5092260;28;20020;-49
2024/01/31 08:10:12;;;;;;;33.33;19.50;;;;;;;8.84;69.38;100430.28;5092004;28;20114;-47
2024/01/31 08:12:40;;;;;;;25.85;17.33;;;;;;;8.98;68.69;100442.88;5090141;28;20093;-47
2024/01/31 08:15:06;;;;;;;30.58;21.27;;;;;;;9.06;68.19;100436.91;5092083;28;20028;-47
2024/01/31 08:17:32;;;;;;;51.40;38.30;;;;;;;9.10;67.51;100440.91;5092155;28;20103;-48
2024/01/31 08:19:58;;;;;;;30.50;17.92;;;;;;;9.19;67.43;100438.22;5092091;28;20031;-47
2024/01/31 08:22:23;;;;;;;52.50;26.65;;;;;;;9.36;67.48;100433.94;5092013;28;20516;-47
2024/01/31 08:24:50;;;;;;;69.10;32.20;;;;;;;9.60;67.02;100445.63;5092001;28;20477;-47
2024/01/31 08:27:18;;;;;;;60.83;25.88;;;;;;;9.79;66.54;100442.84;5091960;28;20536;-47
2024/01/31 08:29:45;;;;;;;38.05;22.58;;;;;;;9.95;65.47;100443.94;5091936;28;20042;-49
2024/01/31 08:32:10;;;;;;;38.50;28.45;;;;;;;9.98;64.09;100441.84;5091827;28;20043;-49
2024/01/31 08:34:36;;;;;;;37.85;17.38;;;;;;;9.97;64.07;100442.00;5090543;28;20032;-49
2024/01/31 08:37:02;;;;;;;33.10;19.40;;;;;;;10.23;64.35;100434.13;5091869;28;20063;-50
2024/01/31 08:39:31;;;;;;;31.33;16.23;;;;;;;10.46;63.13;100437.06;5100307;28;20043;-47
2024/01/31 08:41:57;;;;;;;27.73;16.08;;;;;;;10.52;62.53;100441.72;5105351;28;20055;-47
2024/01/31 08:44:23;;;;;;;33.97;20.50;;;;;;;10.62;62.56;100438.94;5091760;28;20394;-47
2024/01/31 08:46:49;;;;;;;33.30;16.45;;;;;;;10.93;62.62;100434.00;5091789;28;20055;-47
2024/01/31 08:49:15;;;;;;;32.17;17.70;;;;;;;11.23;62.34;100439.66;5091765;28;20020;-47
2024/01/31 08:51:41;;;;;;;41.65;20.02;;;;;;;11.52;61.08;100435.75;5090317;28;20024;-47
2024/01/31 08:54:06;;;;;;;37.45;17.95;;;;;;;11.69;60.77;100436.56;5091736;28;20024;-47
2024/01/31 08:56:34;;;;;;;40.75;29.15;;;;;;;11.64;59.72;100431.00;5091624;28;20028;-47
2024/01/31 08:59:00;;;;;;;43.80;18.08;;;;;;;11.63;59.56;100437.25;5091639;28;20021;-49
2024/01/31 09:01:26;;;;;;;44.97;23.80;;;;;;;11.71;59.34;100437.25;5091605;28;20031;-49
2024/01/31 09:03:52;;;;;;;51.97;19.08;;;;;;;11.89;58.70;100443.22;5090350;28;20024;-49
2024/01/31 09:06:18;;;;;;;68.15;28.65;;;;;;;11.97;57.70;100443.19;5090198;28;20035;-50
2024/01/31 09:08:44;;;;;;;226.07;44.72;;;;;;;12.03;57.50;100443.50;5091604;28;20017;-49
2024/01/31 09:11:09;;;;;;;137.27;33.83;;;;;;;12.12;57.61;100448.59;5091336;28;20034;-49
2024/01/31 09:13:35;;;;;;;130.60;34.97;;;;;;;12.18;57.15;100450.56;5090181;28;20024;-49
2024/01/31 09:16:02;;;;;;;178.55;35.15;;;;;;;12.13;57.20;100452.88;5091529;28;20020;-47
2024/01/31 09:18:28;;;;;;;50.15;16.80;;;;;;;12.08;56.83;100449.91;5090183;28;20032;-47
2024/01/31 09:20:54;;;;;;;40.25;16.70;;;;;;;11.94;57.45;100453.22;5091344;28;20024;-47
2024/01/31 09:23:21;;;;;;;34.25;17.80;;;;;;;11.97;57.17;100445.84;5093560;28;20099;-47
2024/01/31 09:25:48;;;;;;;29.73;19.70;;;;;;;11.91;57.60;100443.88;5093938;28;20031;-47
2024/01/31 09:28:14;;;;;;;49.97;42.90;;;;;;;12.02;56.83;100437.44;5095185;28;20020;-47
2024/01/31 09:30:39;;;;;;;66.82;53.80;;;;;;;12.13;56.81;100431.84;5095067;28;20379;-47
2024/01/31 09:33:05;;;;;;;84.10;75.57;;;;;;;12.52;56.79;100427.63;5093820;28;20025;-47
2024/01/31 09:35:31;;;;;;;69.97;62.30;;;;;;;14.23;54.13;100424.81;5095070;28;20077;-47
2024/01/31 09:37:57;;;;;;;45.17;23.20;;;;;;;16.31;49.74;100412.72;5095043;28;20043;-47
2024/01/31 09:40:23;;;;;;;42.03;25.88;;;;;;;18.19;46.09;100414.75;5095014;28;20505;-45
2024/01/31 09:42:52;;;;;;;41.25;25.55;;;;;;;19.80;43.56;100405.78;5094664;28;20044;-45
2024/01/31 09:45:18;;;;;;;32.50;24.02;;;;;;;21.02;39.20;100412.22;5094756;28;20024;-45
2024/01/31 09:47:46;;;;;;;36.10;18.85;;;;;;;21.89;37.51;100417.06;5094879;28;20020;-47
2024/01/31 09:50:12;;;;;;;31.15;20.13;;;;;;;22.38;35.75;100419.50;5094711;28;20130;-47
2024/01/31 09:52:39;;;;;;;30.45;19.73;;;;;;;22.73;34.51;100416.72;5094728;28;20036;-47
2024/01/31 09:55:10;;;;;;;27.77;21.88;;;;;;;23.26;34.10;100414.75;5093307;28;20039;-47
2024/01/31 09:57:36;;;;;;;35.40;23.08;;;;;;;23.81;32.75;100415.97;5093365;28;20036;-45
2024/01/31 10:00:03;;;;;;;27.10;21.90;;;;;;;24.43;31.71;100412.25;5094576;28;20031;-45
2024/01/31 10:02:31;;;;;;;26.20;19.15;;;;;;;24.92;30.58;100421.16;5094600;28;20470;-45
2024/01/31 10:04:58;;;;;;;28.15;22.90;;;;;;;25.27;30.29;100413.72;5094837;28;20069;-46
2024/01/31 10:07:25;;;;;;;34.35;17.95;;;;;;;26.12;28.56;100419.19;5094445;28;20485;-45
2024/01/31 10:09:54;;;;;;;26.55;18.35;;;;;;;26.54;27.55;100417.47;5094369;28;20052;-46
2024/01/31 10:12:20;;;;;;;26.98;18.05;;;;;;;25.58;27.87;100413.97;5094270;28;20103;-46
2024/01/31 10:14:53;;;;;;;39.03;34.88;;;;;;;24.31;29.45;100426.59;5094264;28;20030;-47
2024/01/31 10:17:22;;;;;;;29.85;20.23;;;;;;;23.98;30.19;100432.03;5094230;28;20020;-47
2024/01/31 10:19:49;;;;;;;25.25;20.55;;;;;;;24.71;28.84;100425.50;5094266;28;20398;-47
2024/01/31 10:22:16;;;;;;;43.10;31.27;;;;;;;25.26;28.77;100425.53;5094237;28;20077;-47
2024/01/31 10:24:51;;;;;;;31.23;27.67;;;;;;;25.56;28.50;100419.59;5092925;28;20048;-46
2024/01/31 10:27:21;;;;;;;41.70;19.42;;;;;;;25.11;28.38;100423.47;5093946;28;20051;-46
2024/01/31 10:29:48;;;;;;;66.38;24.85;;;;;;;24.84;28.46;100426.16;5094075;28;20379;-46
2024/01/31 10:32:16;;;;;;;29.13;21.10;;;;;;;24.64;28.57;100422.19;5093810;28;20028;-46
2024/01/31 10:34:46;;;;;;;31.95;19.60;;;;;;;24.55;28.29;100421.00;5091928;28;20047;-46
2024/01/31 10:37:13;;;;;;;42.25;25.20;;;;;;;24.47;28.21;100424.91;5092511;28;20397;-45
2024/01/31 10:39:39;;;;;;;24.83;16.58;;;;;;;23.82;28.47;100423.72;5092537;28;20028;-46
2024/01/31 10:42:08;;;;;;;27.13;17.58;;;;;;;23.37;29.61;100426.47;5093614;28;20039;-46
2024/01/31 10:44:36;;;;;;;35.47;23.15;;;;;;;22.79;30.15;100431.03;5093896;28;20032;-46
2024/01/31 10:47:03;;;;;;;22.70;18.20;;;;;;;22.33;30.76;100434.41;5093661;28;20040;-46
2024/01/31 10:49:28;;;;;;;29.52;24.17;;;;;;;22.13;31.23;100426.72;5093673;28;20024;-45
2024/01/31 10:51:58;;;;;;;32.60;18.20;;;;;;;22.10;31.03;100419.16;5093528;28;20028;-47
2024/01/31 10:54:29;;;;;;;24.10;16.02;;;;;;;21.81;31.55;100417.41;5092261;28;20024;-47
2024/01/31 10:56:56;;;;;;;19.88;17.60;;;;;;;21.62;32.20;100412.16;5093530;28;20032;-47
2024/01/31 10:59:22;;;;;;;18.02;16.08;;;;;;;21.42;32.17;100408.97;5093513;28;20111;-47
2024/01/31 11:01:54;;;;;;;20.65;16.63;;;;;;;21.02;32.31;100404.22;5093441;28;20031;-45
2024/01/31 11:04:23;;;;;;;26.05;19.65;;;;;;;20.68;32.75;100396.63;5092068;28;20505;-45
2024/01/31 11:06:52;;;;;;;20.63;18.52;;;;;;;20.32;33.82;100392.13;5092200;28;20032;-45
2024/01/31 11:09:22;;;;;;;24.17;18.92;;;;;;;20.04;34.35;100388.13;5093272;28;20021;-45
2024/01/31 11:12:03;;;;;;;22.52;15.10;;;;;;;19.90;34.68;100395.44;5093494;28;20099;-45